createdAt,value
2018-02-05T09:09:30.271Z,10.07
2018-02-05T09:11:57.813Z,6.17
2018-02-05T09:14:27.320Z,10.53
2018-02-05T09:16:54.893Z,6.90
2018-02-05T09:19:22.409Z,7.13
2018-02-05T09:21:49.927Z,8.63
2018-02-05T09:24:17.464Z,6.93
2018-02-05T09:26:44.984Z,7.90
2018-02-05T09:29:12.502Z,9.27
2018-02-05T09:31:40.133Z,7.93
2018-02-05T09:34:07.795Z,6.77
2018-02-05T09:36:35.330Z,8.37
2018-02-05T09:39:03.731Z,8.60
2018-02-05T09:41:31.567Z,8.73
2018-02-05T09:43:59.849Z,7.67
2018-02-05T09:46:27.409Z,10.47
2018-02-05T09:48:55.710Z,5.30
2018-02-05T09:51:24.125Z,12.97
2018-02-05T09:53:51.736Z,9.07
2018-02-05T09:56:20.004Z,8.33
2018-02-05T09:58:48.588Z,9.03
2018-02-05T10:01:16.129Z,8.37
2018-02-05T10:03:43.650Z,8.30
2018-02-05T10:06:12.513Z,6.43
2018-02-05T10:08:40.287Z,5.93
2018-02-05T10:11:08.071Z,6.83
2018-02-05T10:13:35.585Z,8.60
2018-02-05T10:16:03.993Z,7.40
2018-02-05T10:18:32.273Z,6.63
2018-02-05T10:20:59.897Z,5.93
2018-02-05T10:23:27.859Z,7.67
2018-02-05T10:25:56.997Z,10.70
2018-02-05T10:28:24.598Z,9.90
2018-02-05T10:30:52.324Z,5.77
2018-02-05T10:33:20.166Z,7.83
2018-02-05T10:35:49.263Z,7.77
2018-02-05T10:38:16.861Z,9.03
2018-02-05T10:40:44.939Z,7.10
2018-02-05T10:43:12.643Z,5.70
2018-02-05T10:45:41.573Z,9.70
2018-02-05T10:48:10.503Z,6.20
2018-02-05T10:50:40.445Z,7.40
2018-02-05T10:53:07.997Z,7.40
2018-02-05T10:55:35.517Z,7.83
2018-02-05T10:58:04.598Z,11.33
2018-02-05T11:00:32.187Z,8.03
2018-02-05T11:02:59.707Z,4.83
2018-02-05T11:05:27.991Z,6.73
2018-02-05T11:07:55.537Z,7.20
2018-02-05T11:10:24.563Z,12.07
2018-02-05T11:12:54.521Z,8.93
2018-02-05T11:15:23.215Z,8.63
2018-02-05T11:17:51.459Z,15.17
2018-02-05T11:20:19.270Z,6.97
2018-02-05T11:22:46.805Z,8.07
2018-02-05T11:25:14.315Z,8.90
2018-02-05T11:27:41.820Z,6.20
2018-02-05T11:30:09.374Z,8.50
2018-02-05T11:32:36.890Z,11.80
2018-02-05T11:35:05.413Z,9.40
2018-02-05T11:37:33.161Z,8.33
2018-02-05T11:40:00.676Z,10.70
2018-02-05T11:42:29.071Z,8.60
2018-02-05T11:44:56.858Z,5.20
2018-02-05T11:47:24.373Z,9.37
2018-02-05T11:49:51.876Z,7.80
2018-02-05T11:52:19.418Z,10.60
2018-02-05T11:54:47.689Z,6.40
2018-02-05T11:57:15.579Z,7.03
2018-02-05T11:59:43.350Z,5.90
2018-02-05T12:02:12.394Z,6.30
2018-02-05T12:04:40.204Z,7.33
2018-02-05T12:07:07.754Z,6.03
2018-02-05T12:09:35.265Z,8.40
2018-02-05T12:12:03.725Z,5.43
2018-02-05T12:14:31.514Z,5.80
2018-02-05T12:16:59.162Z,7.00
2018-02-05T12:19:26.681Z,5.73
2018-02-05T12:21:56.056Z,6.67
2018-02-05T12:24:23.569Z,8.03
2018-02-05T12:26:52.850Z,5.87
2018-02-05T12:29:20.384Z,8.20
2018-02-05T12:31:48.829Z,6.07
2018-02-05T12:34:16.507Z,8.93
2018-02-05T12:36:44.187Z,12.97
2018-02-05T12:39:11.714Z,6.40
2018-02-05T12:41:39.224Z,8.13
2018-02-05T12:44:07.544Z,10.00
2018-02-05T12:46:35.060Z,6.40
2018-02-05T12:49:03.417Z,7.87
2018-02-05T12:51:31.059Z,6.80
2018-02-05T12:53:58.917Z,5.53
2018-02-05T12:56:26.676Z,6.97
2018-02-05T12:58:54.268Z,6.60
2018-02-05T13:01:27.575Z,5.90
2018-02-05T13:03:57.284Z,9.23
2018-02-05T13:06:30.246Z,8.03
2018-02-05T13:08:58.050Z,8.90
2018-02-05T13:11:25.665Z,8.97
2018-02-05T13:13:53.226Z,7.23
2018-02-05T13:16:22.107Z,6.33
2018-02-05T13:18:49.667Z,8.67
2018-02-05T13:21:18.170Z,7.57
2018-02-05T13:23:46.479Z,6.17
2018-02-05T13:26:15.185Z,7.57
2018-02-05T13:28:43.465Z,6.77
2018-02-05T13:31:11.715Z,6.77
2018-02-05T13:33:39.270Z,6.73
2018-02-05T13:36:06.826Z,10.10
2018-02-05T13:38:34.423Z,7.47
2018-02-05T13:41:02.834Z,7.40
2018-02-05T13:43:30.352Z,9.40
2018-02-05T13:45:58.657Z,8.37
2018-02-05T13:48:26.206Z,7.00
2018-02-05T13:50:53.732Z,9.00
2018-02-05T13:53:21.802Z,8.10
2018-02-05T13:55:49.325Z,7.60
2018-02-05T13:58:17.058Z,6.97
2018-02-05T14:00:44.989Z,7.20
2018-02-05T14:03:12.792Z,7.03
2018-02-05T14:05:40.417Z,7.60
2018-02-05T14:08:07.945Z,7.53
2018-02-05T14:10:35.600Z,6.33
2018-02-05T14:13:03.522Z,7.17
2018-02-05T14:15:31.677Z,8.13
2018-02-05T14:17:59.559Z,8.00
2018-02-05T14:20:27.133Z,7.20
2018-02-05T14:22:54.655Z,6.27
2018-02-05T14:25:23.162Z,6.80
2018-02-05T14:27:51.728Z,8.50
2018-02-05T14:30:20.229Z,8.00
2018-02-05T14:32:48.150Z,6.70
2018-02-05T14:35:15.697Z,5.37
2018-02-05T14:37:43.309Z,8.53
2018-02-05T14:40:10.873Z,9.40
2018-02-05T14:42:39.259Z,7.83
2018-02-05T14:45:07.252Z,6.50
2018-02-05T14:47:36.273Z,7.80
2018-02-05T14:50:03.942Z,6.87
2018-02-05T14:52:31.443Z,8.10
2018-02-05T14:54:59.705Z,7.23
2018-02-05T14:57:28.721Z,6.67
2018-02-05T14:59:56.704Z,8.53
2018-02-05T15:02:24.293Z,8.83
2018-02-05T15:04:52.144Z,7.73
2018-02-05T15:07:21.447Z,7.23
2018-02-05T15:09:50.600Z,7.30
2018-02-05T15:12:19.499Z,7.60
2018-02-05T15:14:48.375Z,6.17
2018-02-05T15:17:17.468Z,9.57
2018-02-05T15:19:47.128Z,9.50
2018-02-05T15:22:16.028Z,7.23
2018-02-05T15:24:45.144Z,6.50
2018-02-05T15:27:14.009Z,6.67
2018-02-05T15:29:43.636Z,7.80
2018-02-05T15:32:12.531Z,6.37
2018-02-05T15:34:41.405Z,8.33
2018-02-05T15:37:10.267Z,6.60
2018-02-05T15:39:39.147Z,9.47
2018-02-05T15:42:08.021Z,7.80
2018-02-05T15:44:37.771Z,9.47
2018-02-05T15:47:06.777Z,7.57
2018-02-05T15:49:35.669Z,8.57
2018-02-05T15:52:04.520Z,6.90
2018-02-05T15:54:33.420Z,10.93
2018-02-05T15:57:02.272Z,9.87
2018-02-05T15:59:31.136Z,7.27
2018-02-05T16:02:00.208Z,8.53
2018-02-05T16:04:29.072Z,6.50
2018-02-05T16:06:58.299Z,10.97
2018-02-05T16:09:28.154Z,10.07
2018-02-05T16:11:57.065Z,7.13
2018-02-05T16:14:25.967Z,7.47
2018-02-05T16:16:54.911Z,7.50
2018-02-05T16:19:23.771Z,8.63
2018-02-05T16:21:53.009Z,8.90
2018-02-05T16:24:21.925Z,9.13
2018-02-05T16:26:51.474Z,11.50
2018-02-05T16:29:20.338Z,9.27
2018-02-05T16:31:49.281Z,6.57
2018-02-05T16:34:18.400Z,9.37
2018-02-05T16:36:47.256Z,8.13
2018-02-05T16:39:16.148Z,9.70
2018-02-05T16:41:45.876Z,9.53
2018-02-05T16:44:14.745Z,8.13
2018-02-05T16:46:45.479Z,8.63
2018-02-05T16:49:14.751Z,6.60
2018-02-05T16:51:43.630Z,6.77
2018-02-05T16:54:12.633Z,7.73
2018-02-05T16:56:41.989Z,9.53
2018-02-05T16:59:10.998Z,11.00
2018-02-05T17:01:39.907Z,7.57
2018-02-05T17:04:08.776Z,9.53
2018-02-05T17:06:37.641Z,8.90
2018-02-05T17:09:06.699Z,10.43
2018-02-05T17:11:35.769Z,6.70
2018-02-05T17:14:04.633Z,9.43
2018-02-05T17:16:33.530Z,8.90
2018-02-05T17:19:03.501Z,10.33
2018-02-05T17:21:32.360Z,8.03
2018-02-05T17:24:01.464Z,6.50
2018-02-05T17:26:30.347Z,10.57
2018-02-05T17:28:59.955Z,12.23
2018-02-05T17:31:28.880Z,10.27
2018-02-05T17:33:57.831Z,12.03
2018-02-05T17:36:26.701Z,9.50
2018-02-05T17:38:55.601Z,7.87
2018-02-05T17:41:24.464Z,11.60
2018-02-05T17:43:54.023Z,8.30
2018-02-05T17:46:22.908Z,10.43
2018-02-05T17:48:51.896Z,10.40
2018-02-05T17:51:20.784Z,11.60
2018-02-05T17:53:49.703Z,9.33
2018-02-05T17:56:18.570Z,7.90
2018-02-05T17:58:47.433Z,8.33
2018-02-05T18:01:16.333Z,11.27
2018-02-05T18:03:45.236Z,12.77
2018-02-05T18:06:14.118Z,11.20
2018-02-05T18:08:43.038Z,12.40
2018-02-05T18:11:11.951Z,15.20
2018-02-05T18:13:40.964Z,8.53
2018-02-05T18:16:09.857Z,7.93
2018-02-05T18:18:38.716Z,10.00
2018-02-05T18:21:08.432Z,7.37
2018-02-05T18:23:37.320Z,8.67
2018-02-05T18:26:06.392Z,6.13
2018-02-05T18:28:35.950Z,9.00
2018-02-05T18:31:05.886Z,9.03
2018-02-05T18:33:34.756Z,10.27
2018-02-05T18:36:03.648Z,9.00
2018-02-05T18:38:32.722Z,10.30
2018-02-05T18:41:02.368Z,7.47
2018-02-05T18:43:31.254Z,11.03
2018-02-05T18:46:00.164Z,8.27
2018-02-05T18:48:29.024Z,9.50
2018-02-05T18:50:57.883Z,8.57
2018-02-05T18:53:26.775Z,7.00
2018-02-05T18:55:55.664Z,7.80
2018-02-05T18:58:24.529Z,8.20
2018-02-05T19:00:53.450Z,11.07
2018-02-05T19:03:22.582Z,13.20
2018-02-05T19:05:51.471Z,9.20
2018-02-05T19:08:20.368Z,9.80
2018-02-05T19:10:49.244Z,9.63
2018-02-05T19:13:18.477Z,10.30
2018-02-05T19:15:48.845Z,8.43
2018-02-05T19:18:17.780Z,10.40
2018-02-05T19:20:46.731Z,10.10
2018-02-05T19:23:16.470Z,11.87
2018-02-05T19:25:45.336Z,10.87
2018-02-05T19:28:14.689Z,11.50
2018-02-05T19:30:43.639Z,10.57
2018-02-05T19:33:12.507Z,7.10
2018-02-05T19:35:42.034Z,9.83
2018-02-05T19:38:11.237Z,9.57
2018-02-05T19:40:40.754Z,9.27
2018-02-05T19:43:10.722Z,10.70
2018-02-05T19:45:40.001Z,10.80
2018-02-05T19:48:09.455Z,10.70
2018-02-05T19:50:38.991Z,9.80
2018-02-05T19:53:07.899Z,9.70
2018-02-05T19:55:36.779Z,10.57
2018-02-05T19:58:05.997Z,10.90
2018-02-05T20:00:35.400Z,11.83
2018-02-05T20:03:04.965Z,15.70
2018-02-05T20:05:34.358Z,11.43
2018-02-05T20:08:03.962Z,10.57
2018-02-05T20:10:33.268Z,11.60
2018-02-05T20:13:02.365Z,10.43
2018-02-05T20:15:33.427Z,10.77
2018-02-05T20:18:02.912Z,13.00
2018-02-05T20:20:32.198Z,11.87
2018-02-05T20:23:01.560Z,12.60
2018-02-05T20:25:31.350Z,12.93
2018-02-05T20:28:00.665Z,11.60
2018-02-05T20:30:30.070Z,10.30
2018-02-05T20:32:59.444Z,10.80
2018-02-05T20:35:28.840Z,10.20
2018-02-05T20:37:57.771Z,9.83
2018-02-05T20:40:27.648Z,11.40
2018-02-05T20:42:56.744Z,12.47
2018-02-05T20:45:25.770Z,9.70
2018-02-05T20:47:56.713Z,10.47
2018-02-05T20:50:25.790Z,12.53
2018-02-05T20:52:55.261Z,7.83
2018-02-05T20:55:24.668Z,12.57
2018-02-05T20:57:54.230Z,13.87
2018-02-05T21:00:23.670Z,13.07
2018-02-05T21:02:52.894Z,10.90
2018-02-05T21:05:22.182Z,12.20
2018-02-05T21:07:51.102Z,11.47
2018-02-05T21:10:20.022Z,15.63
2018-02-05T21:12:48.984Z,10.83
2018-02-05T21:15:18.139Z,10.87
2018-02-05T21:17:48.093Z,11.83
2018-02-05T21:20:16.998Z,12.90
2018-02-05T21:22:46.154Z,12.20
2018-02-05T21:25:15.059Z,12.50
2018-02-05T21:27:44.706Z,12.50
2018-02-05T21:30:13.606Z,13.10
2018-02-05T21:32:43.899Z,11.73
2018-02-05T21:35:12.992Z,12.33
2018-02-05T21:37:41.907Z,15.83
2018-02-05T21:40:10.834Z,10.47
2018-02-05T21:42:39.772Z,16.60
2018-02-05T21:45:09.789Z,12.33
2018-02-05T21:47:38.664Z,12.70
2018-02-05T21:50:07.567Z,10.73
2018-02-05T21:52:36.433Z,16.40
2018-02-05T21:55:05.341Z,15.00
2018-02-05T21:57:34.562Z,15.47
2018-02-05T22:00:03.429Z,16.33
2018-02-05T22:02:32.307Z,14.97
2018-02-05T22:05:01.208Z,17.23
2018-02-05T22:07:30.080Z,18.15
2018-02-05T22:10:00.484Z,15.40
2018-02-05T22:12:29.399Z,18.47
2018-02-05T22:14:58.276Z,14.43
2018-02-05T22:17:27.156Z,15.50
2018-02-05T22:19:56.065Z,18.05
2018-02-05T22:22:24.932Z,17.97
2018-02-05T22:24:54.567Z,15.90
2018-02-05T22:27:23.465Z,16.70
2018-02-05T22:29:52.328Z,16.37
2018-02-05T22:32:21.273Z,14.27
2018-02-05T22:34:50.601Z,17.17
2018-02-05T22:37:19.465Z,18.07
2018-02-05T22:39:48.348Z,12.00
2018-02-05T22:42:17.241Z,14.97
2018-02-05T22:44:46.129Z,15.32
2018-02-05T22:47:15.021Z,14.27
2018-02-05T22:49:43.924Z,16.53
2018-02-05T22:52:12.801Z,11.83
2018-02-05T22:54:41.705Z,15.80
2018-02-05T22:57:10.616Z,15.20
2018-02-05T22:59:39.484Z,15.30
2018-02-05T23:02:08.367Z,16.48
2018-02-05T23:04:37.451Z,15.55
2018-02-05T23:07:06.346Z,18.30
2018-02-05T23:09:35.228Z,13.27
2018-02-05T23:12:04.267Z,20.52
2018-02-05T23:14:33.148Z,15.35
2018-02-05T23:17:03.154Z,13.93
2018-02-05T23:19:32.058Z,14.77
2018-02-05T23:22:00.938Z,17.27
2018-02-05T23:24:29.826Z,19.25
2018-02-05T23:26:58.727Z,18.60
2018-02-05T23:29:27.604Z,17.85
2018-02-05T23:31:56.492Z,18.12
2018-02-05T23:34:25.412Z,13.35
2018-02-05T23:36:54.646Z,14.93
2018-02-05T23:39:23.592Z,13.98
2018-02-05T23:41:52.510Z,15.38
2018-02-05T23:44:21.380Z,22.58
2018-02-05T23:46:50.253Z,17.33
2018-02-05T23:49:19.167Z,20.48
2018-02-05T23:51:48.040Z,17.12
2018-02-05T23:54:16.934Z,18.23
2018-02-05T23:56:45.859Z,20.00
2018-02-05T23:59:15.464Z,19.87
